Time;durP1;ratioP1;P1;durP2;ratioP2;P2;SDS_P1;SDS_P2;PMS_P1;PMS_P2;Temp;Humidity;BMP_temperature;BMP_pressure;BME280_temperature;BME280_humidity;BME280_pressure;Samples;Min_cycle;Max_cycle;Signal;HPM_P1;HPM_P2
2023/01/16 00:01:23;0.00;0.00;0.62;0.00;0.00;0.62;1.30;0.60;;;21.70;25.20;;;;;;2255555;61;20370;-65
2023/01/16 00:03:50;0.00;0.00;0.62;0.00;0.00;0.62;1.40;0.70;;;21.70;25.30;;;;;;2255289;61;20804;-65
2023/01/16 00:06:16;0.00;0.00;0.62;0.00;0.00;0.62;1.50;0.83;;;21.70;25.30;;;;;;2255468;61;20358;-66
2023/01/16 00:08:43;0.00;0.00;0.62;0.00;0.00;0.62;1.80;0.93;;;21.70;25.30;;;;;;2255239;61;20744;-65
2023/01/16 00:11:11;0.00;0.00;0.62;0.00;0.00;0.62;1.30;0.60;;;21.70;25.30;;;;;;2255877;61;20831;-65
2023/01/16 00:13:39;0.00;0.00;0.62;0.00;0.00;0.62;1.30;0.70;;;21.70;25.30;;;;;;2254996;61;20402;-65
2023/01/16 00:16:07;0.00;0.00;0.62;0.00;0.00;0.62;2.10;1.00;;;21.80;25.40;;;;;;2255116;61;20358;-63
2023/01/16 00:18:33;0.00;0.00;0.62;0.00;0.00;0.62;1.30;0.70;;;21.80;25.40;;;;;;2255851;61;20867;-65
2023/01/16 00:21:00;0.00;0.00;0.62;0.00;0.00;0.62;1.67;0.70;;;21.80;25.40;;;;;;2255422;61;20363;-65
2023/01/16 00:23:27;0.00;0.00;0.62;0.00;0.00;0.62;1.80;0.90;;;21.80;25.40;;;;;;2255113;61;20371;-65
2023/01/16 00:25:53;0.00;0.00;0.62;0.00;0.00;0.62;1.67;0.80;;;21.80;25.40;;;;;;2256007;61;20394;-64
2023/01/16 00:28:21;0.00;0.00;0.62;0.00;0.00;0.62;1.67;0.93;;;21.80;25.40;;;;;;2255088;61;20359;-63
2023/01/16 00:30:47;0.00;0.00;0.62;0.00;0.00;0.62;1.50;0.90;;;21.80;25.40;;;;;;2253587;61;20440;-63
2023/01/16 00:33:14;0.00;0.00;0.62;0.00;0.00;0.62;1.40;0.80;;;21.80;25.40;;;;;;2256184;61;20386;-64
2023/01/16 00:35:40;0.00;0.00;0.62;0.00;0.00;0.62;1.60;0.67;;;21.80;25.50;;;;;;2258213;61;20353;-65
2023/01/16 00:38:07;0.00;0.00;0.62;0.00;0.00;0.62;1.70;0.70;;;21.80;25.50;;;;;;2257072;61;20625;-65
2023/01/16 00:40:33;0.00;0.00;0.62;0.00;0.00;0.62;1.30;0.70;;;21.80;25.50;;;;;;2258648;61;20770;-64
2023/01/16 00:42:59;0.00;0.00;0.62;0.00;0.00;0.62;2.60;0.80;;;21.80;25.50;;;;;;2258064;61;20378;-63
2023/01/16 00:45:28;0.00;0.00;0.62;0.00;0.00;0.62;1.27;0.60;;;21.80;25.50;;;;;;2258286;61;20377;-65
2023/01/16 00:47:54;0.00;0.00;0.62;0.00;0.00;0.62;1.50;0.70;;;21.80;25.50;;;;;;2255496;61;20375;-65
2023/01/16 00:50:20;0.00;0.00;0.62;0.00;0.00;0.62;1.37;0.70;;;21.80;25.50;;;;;;2250385;61;21107;-64
2023/01/16 00:52:49;0.00;0.00;0.62;0.00;0.00;0.62;1.93;0.80;;;21.80;25.50;;;;;;2250966;61;20371;-65
2023/01/16 00:55:16;0.00;0.00;0.62;0.00;0.00;0.62;1.70;0.73;;;21.80;25.50;;;;;;2251805;61;20400;-69
2023/01/16 00:57:43;0.00;0.00;0.62;0.00;0.00;0.62;1.33;0.70;;;21.80;25.50;;;;;;2250537;61;20355;-65
2023/01/16 01:00:11;0.00;0.00;0.62;0.00;0.00;0.62;1.50;0.70;;;21.80;25.50;;;;;;2250573;61;20959;-68
2023/01/16 01:02:38;0.00;0.00;0.62;0.00;0.00;0.62;2.17;0.80;;;21.80;25.50;;;;;;2250987;61;20398;-65
2023/01/16 01:05:06;0.00;0.00;0.62;0.00;0.00;0.62;1.90;0.70;;;21.80;25.50;;;;;;2250657;61;20384;-65
2023/01/16 01:07:32;0.00;0.00;0.62;0.00;0.00;0.62;1.53;0.87;;;21.80;25.50;;;;;;2250761;61;20355;-65
2023/01/16 01:09:59;0.00;0.00;0.62;0.00;0.00;0.62;1.60;0.70;;;21.80;25.50;;;;;;2251140;61;20403;-65
2023/01/16 01:12:25;0.00;0.00;0.62;0.00;0.00;0.62;1.73;0.70;;;21.80;25.50;;;;;;2251154;61;20375;-66
2023/01/16 01:14:52;0.00;0.00;0.62;0.00;0.00;0.62;2.30;0.80;;;21.80;25.60;;;;;;2250858;61;20376;-67
2023/01/16 01:17:18;0.00;0.00;0.62;0.00;0.00;0.62;2.77;0.87;;;21.80;25.60;;;;;;2251048;61;20364;-65
2023/01/16 01:19:46;0.00;0.00;0.62;0.00;0.00;0.62;1.67;0.70;;;21.80;25.70;;;;;;2250990;61;20367;-65
2023/01/16 01:22:13;0.00;0.00;0.62;0.00;0.00;0.62;1.20;0.63;;;21.80;25.80;;;;;;2251614;61;20364;-65
2023/01/16 01:24:39;0.00;0.00;0.62;0.00;0.00;0.62;2.17;1.03;;;21.80;25.80;;;;;;2251908;61;20383;-65
2023/01/16 01:27:06;0.00;0.00;0.62;0.00;0.00;0.62;1.20;0.60;;;21.80;25.70;;;;;;2251323;61;20775;-66
2023/01/16 01:29:32;0.00;0.00;0.62;0.00;0.00;0.62;1.40;0.67;;;21.80;25.70;;;;;;2251292;61;20911;-63
2023/01/16 01:31:58;0.00;0.00;0.62;0.00;0.00;0.62;2.20;0.90;;;21.80;25.70;;;;;;2251655;61;20356;-63
2023/01/16 01:34:25;0.00;0.00;0.62;0.00;0.00;0.62;1.43;0.60;;;21.80;25.70;;;;;;2250959;61;20364;-65
2023/01/16 01:36:53;0.00;0.00;0.62;0.00;0.00;0.62;1.40;0.70;;;21.80;25.70;;;;;;2250466;61;20372;-65
2023/01/16 01:39:19;0.00;0.00;0.62;0.00;0.00;0.62;1.87;0.70;;;21.80;25.60;;;;;;2251507;61;20364;-65
2023/01/16 01:41:46;0.00;0.00;0.62;0.00;0.00;0.62;1.60;0.80;;;21.80;25.60;;;;;;2251750;61;20371;-65
2023/01/16 01:44:52;0.00;0.00;0.62;0.00;0.00;0.62;1.30;0.60;;;21.80;25.60;;;;;;2250830;61;20387;-65
2023/01/16 01:47:23;0.00;0.00;0.62;0.00;0.00;0.62;1.87;0.90;;;21.90;25.70;;;;;;2251697;61;20376;-65
2023/01/16 01:49:51;0.00;0.00;0.62;0.00;0.00;0.62;1.60;0.80;;;21.90;25.70;;;;;;2250979;61;20363;-64
2023/01/16 01:52:21;0.00;0.00;0.62;0.00;0.00;0.62;2.10;0.80;;;21.80;25.60;;;;;;2251370;61;20408;-65
2023/01/16 01:54:53;0.00;0.00;0.62;0.00;0.00;0.62;1.30;0.70;;;21.90;25.70;;;;;;2252465;61;20356;-66
2023/01/16 01:57:27;0.00;0.00;0.62;0.00;0.00;0.62;1.50;0.60;;;21.80;26.20;;;;;;2252445;61;20367;-66
2023/01/16 02:00:00;0.00;0.00;0.62;0.00;0.00;0.62;1.20;0.70;;;21.90;25.70;;;;;;2252325;61;20418;-64
2023/01/16 02:02:32;0.00;0.00;0.62;0.00;0.00;0.62;2.27;1.00;;;21.80;25.70;;;;;;2251408;61;20825;-65
2023/01/16 02:04:59;0.00;0.00;0.62;0.00;0.00;0.62;1.57;0.83;;;21.80;25.70;;;;;;2254483;61;20382;-65
2023/01/16 02:07:27;0.00;0.00;0.62;0.00;0.00;0.62;2.13;0.80;;;21.90;25.80;;;;;;2254550;61;20648;-65
2023/01/16 02:10:01;0.00;0.00;0.62;0.00;0.00;0.62;2.97;0.90;;;21.90;25.70;;;;;;2255749;61;20456;-65
2023/01/16 02:12:28;0.00;0.00;0.62;0.00;0.00;0.62;2.53;0.80;;;21.80;25.50;;;;;;2254939;61;20382;-65
2023/01/16 02:14:57;0.00;0.00;0.62;0.00;0.00;0.62;1.60;0.70;;;21.90;25.50;;;;;;2254916;61;20413;-64
2023/01/16 02:20:23;0.00;0.00;0.62;0.00;0.00;0.62;2.00;1.07;;;21.80;25.40;;;;;;2254777;61;20366;-64
2023/01/16 02:23:43;0.00;0.00;0.62;0.00;0.00;0.62;2.03;0.73;;;21.80;25.40;;;;;;2254848;61;20371;-64
2023/01/16 02:26:47;0.00;0.00;0.62;0.00;0.00;0.62;1.77;0.80;;;21.80;25.40;;;;;;2241910;61;20456;-64
2023/01/16 02:30:04;0.00;0.00;0.62;0.00;0.00;0.62;1.63;0.70;;;21.80;25.30;;;;;;2238159;61;20391;-64
2023/01/16 02:32:56;0.00;0.00;0.62;0.00;0.00;0.62;2.20;0.70;;;21.80;25.30;;;;;;2254126;61;20391;-63
2023/01/16 02:35:44;0.00;0.00;0.62;0.00;0.00;0.62;1.40;0.80;;;21.80;25.30;;;;;;2255117;61;20899;-64
2023/01/16 02:38:22;0.00;0.00;0.62;0.00;0.00;0.62;1.53;0.70;;;21.70;25.20;;;;;;2254495;61;20402;-64
2023/01/16 02:40:59;0.00;0.00;0.62;0.00;0.00;0.62;1.60;0.70;;;21.70;25.10;;;;;;2254073;61;20362;-63
2023/01/16 02:43:34;0.00;0.00;0.62;0.00;0.00;0.62;1.60;0.80;;;21.70;25.10;;;;;;2255049;61;20898;-64
2023/01/16 02:46:12;0.00;0.00;0.62;0.00;0.00;0.62;1.60;0.83;;;21.70;25.10;;;;;;2254820;61;20440;-64
2023/01/16 02:48:49;0.00;0.00;0.62;0.00;0.00;0.62;2.23;0.80;;;21.70;25.60;;;;;;2254547;61;20366;-64
2023/01/16 02:51:28;0.00;0.00;0.62;0.00;0.00;0.62;1.80;0.83;;;21.70;25.10;;;;;;2254707;61;20373;-64
2023/01/16 02:54:02;0.00;0.00;0.62;0.00;0.00;0.62;1.67;0.90;;;21.70;25.10;;;;;;2254974;61;20378;-63
2023/01/16 02:56:41;0.00;0.00;0.62;0.00;0.00;0.62;1.80;0.80;;;21.70;25.10;;;;;;2254684;61;20363;-64
2023/01/16 02:59:10;0.00;0.00;0.62;0.00;0.00;0.62;2.30;0.90;;;21.70;25.50;;;;;;2254404;61;20359;-64
2023/01/16 03:01:40;0.00;0.00;0.62;0.00;0.00;0.62;2.73;1.20;;;21.60;25.00;;;;;;2255550;61;20363;-64
2023/01/16 03:04:44;0.00;0.00;0.62;0.00;0.00;0.62;1.70;0.90;;;21.60;25.00;;;;;;2254219;61;20386;-64
2023/01/16 03:07:38;0.00;0.00;0.62;0.00;0.00;0.62;2.20;0.90;;;21.60;25.00;;;;;;2254183;61;20366;-65
2023/01/16 03:10:24;0.00;0.00;0.62;0.00;0.00;0.62;2.10;1.00;;;21.60;25.00;;;;;;2254363;61;20893;-64
2023/01/16 03:13:09;0.00;0.00;0.62;0.00;0.00;0.62;2.57;1.10;;;21.60;24.80;;;;;;2254051;61;20382;-63
2023/01/16 03:15:48;0.00;0.00;0.62;0.00;0.00;0.62;2.20;0.90;;;21.50;24.40;;;;;;2255091;61;20367;-64
2023/01/16 03:18:30;0.00;0.00;0.62;0.00;0.00;0.62;3.10;0.90;;;21.40;24.10;;;;;;2254720;61;20353;-64
2023/01/16 03:21:08;0.00;0.00;0.62;0.00;0.00;0.62;2.17;0.80;;;21.40;24.10;;;;;;2254914;61;20367;-64
2023/01/16 03:23:46;0.00;0.00;0.62;0.00;0.00;0.62;1.90;0.90;;;21.30;24.20;;;;;;2255167;61;20813;-65
2023/01/16 03:26:19;0.00;0.00;0.62;0.00;0.00;0.62;1.80;0.90;;;21.30;24.30;;;;;;2254418;61;20394;-65
2023/01/16 03:28:59;0.00;0.00;0.62;0.00;0.00;0.62;1.80;0.90;;;21.20;24.30;;;;;;2254328;61;20591;-64
2023/01/16 03:31:35;0.00;0.00;0.62;0.00;0.00;0.62;1.93;0.87;;;21.20;24.20;;;;;;2255385;61;20355;-63
2023/01/16 03:34:12;0.00;0.00;0.62;0.00;0.00;0.62;1.90;0.80;;;21.20;24.20;;;;;;2254570;61;20833;-63
2023/01/16 03:36:49;0.00;0.00;0.62;0.00;0.00;0.62;1.30;0.77;;;21.10;24.60;;;;;;2254479;61;20362;-63
2023/01/16 03:39:22;0.00;0.00;0.62;0.00;0.00;0.62;1.57;0.80;;;21.10;24.10;;;;;;2254323;61;20365;-64
2023/01/16 03:41:52;0.00;0.00;0.62;0.00;0.00;0.62;1.70;0.80;;;21.00;24.10;;;;;;2255151;61;20879;-65
2023/01/16 03:44:29;0.00;0.00;0.62;0.00;0.00;0.62;1.90;0.90;;;21.00;24.10;;;;;;2254075;61;20919;-63
2023/01/16 03:46:58;0.00;0.00;0.62;0.00;0.00;0.62;1.60;0.80;;;21.00;24.10;;;;;;2254619;61;20362;-64
2023/01/16 03:49:30;0.00;0.00;0.62;0.00;0.00;0.62;1.57;0.70;;;20.90;24.10;;;;;;2254961;61;20405;-64
2023/01/16 03:52:02;0.00;0.00;0.62;0.00;0.00;0.62;1.47;0.80;;;20.90;24.30;;;;;;2254215;61;20367;-64
2023/01/16 03:54:40;0.00;0.00;0.62;0.00;0.00;0.62;1.60;0.80;;;20.90;24.90;;;;;;2254783;61;20351;-64
2023/01/16 03:57:12;0.00;0.00;0.62;0.00;0.00;0.62;1.60;0.90;;;20.90;24.40;;;;;;2253964;61;20363;-64
2023/01/16 03:59:42;0.00;0.00;0.62;0.00;0.00;0.62;1.87;0.80;;;20.90;24.50;;;;;;2254418;61;20961;-64
2023/01/16 04:02:14;0.00;0.00;0.62;0.00;0.00;0.62;2.47;1.03;;;20.90;24.50;;;;;;2254321;61;20474;-64
2023/01/16 04:04:47;0.00;0.00;0.62;0.00;0.00;0.62;2.27;0.80;;;20.90;24.60;;;;;;2254436;61;20382;-64
2023/01/16 04:07:24;0.00;0.00;0.62;0.00;0.00;0.62;1.50;0.70;;;20.90;24.60;;;;;;2254631;61;20373;-63
2023/01/16 04:09:55;0.00;0.00;0.62;0.00;0.00;0.62;1.60;1.00;;;20.90;24.70;;;;;;2254645;61;20363;-64
2023/01/16 04:12:27;0.00;0.00;0.62;0.00;0.00;0.62;1.50;0.70;;;20.90;24.70;;;;;;2255021;61;20378;-64
2023/01/16 04:14:58;0.00;0.00;0.62;0.00;0.00;0.62;1.97;0.87;;;20.90;24.70;;;;;;2254527;61;20371;-64
2023/01/16 04:17:26;0.00;0.00;0.62;0.00;0.00;0.62;2.17;0.90;;;20.90;24.70;;;;;;2253859;61;20374;-64
2023/01/16 04:19:52;0.00;0.00;0.62;0.00;0.00;0.62;1.30;0.70;;;20.90;24.70;;;;;;2255032;61;20884;-64
2023/01/16 04:22:22;0.00;0.00;0.62;0.00;0.00;0.62;2.40;0.93;;;20.90;24.80;;;;;;2255083;61;20403;-64
2023/01/16 04:24:51;0.00;0.00;0.62;0.00;0.00;0.62;3.90;0.93;;;20.90;24.80;;;;;;2254767;61;20439;-64
2023/01/16 04:27:18;0.00;0.00;0.62;0.00;0.00;0.62;1.77;0.90;;;20.90;24.80;;;;;;2253841;61;20378;-64
2023/01/16 04:29:44;0.00;0.00;0.62;0.00;0.00;0.62;1.63;0.83;;;21.00;24.90;;;;;;2256088;61;20790;-64
2023/01/16 04:32:11;0.00;0.00;0.62;0.00;0.00;0.62;2.30;0.80;;;20.90;24.80;;;;;;2255313;61;20362;-65
2023/01/16 04:34:38;0.00;0.00;0.62;0.00;0.00;0.62;1.93;0.80;;;21.00;24.90;;;;;;2254363;61;20378;-66
2023/01/16 04:37:05;0.00;0.00;0.62;0.00;0.00;0.62;2.47;0.80;;;21.00;24.90;;;;;;2255443;61;20367;-64
2023/01/16 04:39:33;0.00;0.00;0.62;0.00;0.00;0.62;1.60;0.80;;;21.00;24.90;;;;;;2254474;61;20903;-64
2023/01/16 04:42:01;0.00;0.00;0.62;0.00;0.00;0.62;2.87;0.90;;;21.00;24.90;;;;;;2250625;61;20452;-65
2023/01/16 04:44:27;0.00;0.00;0.62;0.00;0.00;0.62;1.67;0.80;;;20.90;24.80;;;;;;2255508;61;20801;-64
2023/01/16 04:46:54;0.00;0.00;0.62;0.00;0.00;0.62;1.87;0.93;;;20.90;24.80;;;;;;2254922;61;20741;-64
2023/01/16 04:49:20;0.00;0.00;0.62;0.00;0.00;0.62;2.23;0.93;;;20.90;24.70;;;;;;2254243;61;20407;-64
2023/01/16 04:51:46;0.00;0.00;0.62;0.00;0.00;0.62;1.80;0.80;;;20.90;24.70;;;;;;2255597;61;20679;-64
2023/01/16 04:54:15;0.00;0.00;0.62;0.00;0.00;0.62;1.40;0.80;;;20.90;24.80;;;;;;2255175;61;20370;-64
2023/01/16 04:56:44;0.00;0.00;0.62;0.00;0.00;0.62;2.07;0.83;;;20.80;24.50;;;;;;2254790;61;20355;-64
2023/01/16 04:59:12;0.00;0.00;0.62;0.00;0.00;0.62;1.37;0.70;;;20.80;24.40;;;;;;2255779;61;20367;-65
2023/01/16 05:01:39;0.00;0.00;0.62;0.00;0.00;0.62;1.40;0.80;;;20.80;24.30;;;;;;2253928;61;20406;-64
2023/01/16 05:04:08;0.00;0.00;0.62;0.00;0.00;0.62;2.60;1.07;;;20.80;24.20;;;;;;2255007;61;20699;-65
2023/01/16 05:06:34;0.00;0.00;0.62;0.00;0.00;0.62;2.13;0.90;;;20.70;24.10;;;;;;2255258;61;20383;-64
2023/01/16 05:09:02;0.00;0.00;0.62;0.00;0.00;0.62;2.17;0.80;;;20.70;24.10;;;;;;2255543;61;20827;-64
2023/01/16 05:11:29;0.00;0.00;0.62;0.00;0.00;0.62;1.50;0.80;;;20.60;24.00;;;;;;2253564;61;20899;-64
2023/01/16 05:13:57;0.00;0.00;0.62;0.00;0.00;0.62;1.63;0.80;;;20.60;24.10;;;;;;2255276;61;20382;-64
2023/01/16 05:16:23;0.00;0.00;0.62;0.00;0.00;0.62;1.77;0.70;;;20.60;24.20;;;;;;2255160;61;20366;-66
2023/01/16 05:18:50;0.00;0.00;0.62;0.00;0.00;0.62;1.83;0.80;;;20.60;24.20;;;;;;2254639;61;20390;-65
2023/01/16 05:21:16;0.00;0.00;0.62;0.00;0.00;0.62;1.87;0.80;;;20.60;24.30;;;;;;2255559;61;20726;-65
2023/01/16 05:23:43;0.00;0.00;0.62;0.00;0.00;0.62;1.70;0.97;;;20.60;24.80;;;;;;2255338;61;20390;-64
2023/01/16 05:26:09;0.00;0.00;0.62;0.00;0.00;0.62;2.17;0.80;;;20.50;24.20;;;;;;2254889;61;20449;-64
2023/01/16 05:28:36;0.00;0.00;0.62;0.00;0.00;0.62;1.47;0.70;;;20.50;24.20;;;;;;2255069;61;20365;-65
2023/01/16 05:31:04;0.00;0.00;0.62;0.00;0.00;0.62;1.57;0.70;;;20.50;24.20;;;;;;2255570;61;20382;-64
2023/01/16 05:33:30;0.00;0.00;0.62;0.00;0.00;0.62;1.43;0.73;;;20.50;24.20;;;;;;2254197;61;20453;-65
2023/01/16 05:35:57;0.00;0.00;0.62;0.00;0.00;0.62;1.90;0.80;;;20.50;24.20;;;;;;2250689;61;20746;-64
2023/01/16 05:38:23;0.00;0.00;0.62;0.00;0.00;0.62;1.83;0.90;;;20.40;24.20;;;;;;2250507;61;20411;-64
2023/01/16 05:40:50;0.00;0.00;0.62;0.00;0.00;0.62;1.67;0.90;;;20.40;24.20;;;;;;2251183;61;20418;-64
2023/01/16 05:43:16;0.00;0.00;0.62;0.00;0.00;0.62;1.40;0.70;;;20.40;24.20;;;;;;2251117;61;20379;-64
2023/01/16 05:45:42;0.00;0.00;0.62;0.00;0.00;0.62;1.77;0.90;;;20.40;24.30;;;;;;2251266;61;20530;-64
2023/01/16 05:48:10;0.00;0.00;0.62;0.00;0.00;0.62;1.63;0.87;;;20.40;24.30;;;;;;2250888;61;20363;-64
2023/01/16 05:50:37;0.00;0.00;0.62;0.00;0.00;0.62;1.53;0.70;;;20.40;24.30;;;;;;2250340;61;20367;-63
2023/01/16 05:53:04;0.00;0.00;0.62;0.00;0.00;0.62;2.03;0.90;;;20.40;24.30;;;;;;2248659;61;20395;-63
2023/01/16 05:55:31;0.00;0.00;0.62;0.00;0.00;0.62;2.03;1.00;;;20.40;24.40;;;;;;2248923;61;20672;-64
2023/01/16 05:57:57;0.00;0.00;0.62;0.00;0.00;0.62;1.87;1.00;;;20.40;24.30;;;;;;2248674;61;20740;-63
2023/01/16 06:00:24;0.00;0.00;0.62;0.00;0.00;0.62;1.60;0.90;;;20.40;24.20;;;;;;2248651;61;20368;-63
2023/01/16 06:02:51;0.00;0.00;0.62;0.00;0.00;0.62;1.93;0.80;;;20.30;24.20;;;;;;2248290;61;20415;-64
2023/01/16 06:05:19;0.00;0.00;0.62;0.00;0.00;0.62;1.93;1.10;;;20.30;24.10;;;;;;2248756;61;20901;-64
2023/01/16 06:07:45;0.00;0.00;0.62;0.00;0.00;0.62;1.20;0.60;;;20.30;24.00;;;;;;2248792;61;20356;-62
2023/01/16 06:10:13;0.00;0.00;0.62;0.00;0.00;0.62;1.50;0.80;;;20.30;24.00;;;;;;2248737;61;20364;-63
2023/01/16 06:12:40;0.00;0.00;0.62;0.00;0.00;0.62;1.87;0.87;;;20.20;24.00;;;;;;2248985;61;20412;-63
2023/01/16 06:15:08;0.00;0.00;0.62;0.00;0.00;0.62;1.93;0.87;;;20.20;23.90;;;;;;2249039;61;20348;-62
2023/01/16 06:17:35;0.00;0.00;0.62;0.00;0.00;0.62;1.60;0.80;;;20.20;24.00;;;;;;2247934;61;20360;-64
2023/01/16 06:20:02;0.00;0.00;0.62;0.00;0.00;0.62;1.90;0.80;;;20.20;24.00;;;;;;2249265;61;20359;-63
2023/01/16 06:22:30;0.00;0.00;0.62;0.00;0.00;0.62;1.73;0.90;;;20.10;23.90;;;;;;2249215;61;20390;-63
2023/01/16 06:24:57;0.00;0.00;0.62;0.00;0.00;0.62;2.20;1.10;;;20.10;23.90;;;;;;2248984;61;20908;-62
2023/01/16 06:27:25;0.00;0.00;0.62;0.00;0.00;0.62;2.80;1.20;;;20.10;23.80;;;;;;2248943;61;20366;-63
2023/01/16 06:29:53;0.00;0.00;0.62;0.00;0.00;0.62;1.80;0.80;;;20.00;23.80;;;;;;2245713;61;20428;-62
2023/01/16 06:32:19;0.00;0.00;0.62;0.00;0.00;0.62;2.00;1.00;;;20.00;23.80;;;;;;2249360;61;20380;-63
2023/01/16 06:34:46;0.00;0.00;0.62;0.00;0.00;0.62;1.60;0.70;;;20.00;23.90;;;;;;2248841;61;20766;-63
2023/01/16 06:37:12;0.00;0.00;0.62;0.00;0.00;0.62;2.87;1.00;;;19.90;23.90;;;;;;2247375;61;20511;-63
2023/01/16 06:39:40;0.00;0.00;0.62;0.00;0.00;0.62;1.80;1.00;;;19.90;24.00;;;;;;2248637;61;20372;-62
2023/01/16 06:42:07;0.00;0.00;0.62;0.00;0.00;0.62;1.40;0.60;;;19.90;24.00;;;;;;2249036;61;21073;-62
2023/01/16 06:44:34;0.00;0.00;0.62;0.00;0.00;0.62;1.47;0.80;;;19.90;24.10;;;;;;2249047;61;20519;-63
2023/01/16 06:47:01;0.00;0.00;0.62;0.00;0.00;0.62;1.70;0.80;;;19.90;24.10;;;;;;2248450;61;20364;-62
2023/01/16 06:49:28;0.00;0.00;0.62;0.00;0.00;0.62;1.50;0.90;;;19.80;24.00;;;;;;2248816;61;20375;-64
2023/01/16 06:51:54;0.00;0.00;0.62;0.00;0.00;0.62;1.53;0.80;;;19.80;24.00;;;;;;2248908;61;20472;-63
2023/01/16 06:54:21;0.00;0.00;0.62;0.00;0.00;0.62;1.80;0.70;;;19.80;24.10;;;;;;2248791;61;20379;-62
2023/01/16 06:56:49;0.00;0.00;0.62;0.00;0.00;0.62;1.50;0.80;;;19.80;24.10;;;;;;2248560;61;20852;-61
2023/01/16 06:59:18;0.00;0.00;0.62;0.00;0.00;0.62;1.80;1.07;;;19.80;24.20;;;;;;2249460;61;20446;-63
2023/01/16 07:01:45;0.00;0.00;0.62;0.00;0.00;0.62;2.27;1.10;;;19.80;24.20;;;;;;2249341;61;20425;-63
2023/01/16 07:04:11;0.00;0.00;0.62;0.00;0.00;0.62;1.40;0.80;;;19.80;24.30;;;;;;2248472;61;20388;-63
2023/01/16 07:06:39;0.00;0.00;0.62;0.00;0.00;0.62;1.90;0.87;;;19.80;24.30;;;;;;2248600;61;20383;-62
2023/01/16 07:09:06;0.00;0.00;0.62;0.00;0.00;0.62;1.60;0.80;;;19.80;24.30;;;;;;2248975;61;20355;-63
2023/01/16 07:11:32;0.00;0.00;0.62;0.00;0.00;0.62;1.40;0.80;;;19.80;24.30;;;;;;2248709;61;20371;-63
2023/01/16 07:22:37;0.00;0.00;0.62;0.00;0.00;0.62;1.50;0.80;;;19.80;24.40;;;;;;2248845;61;20363;-64
2023/01/16 07:25:07;0.00;0.00;0.62;0.00;0.00;0.62;1.50;0.70;;;19.80;24.40;;;;;;2248187;61;20399;-64
2023/01/16 07:27:34;0.00;0.00;0.62;0.00;0.00;0.62;1.40;0.80;;;19.80;24.40;;;;;;2248342;61;20367;-64
2023/01/16 07:30:02;0.00;0.00;0.62;0.00;0.00;0.62;1.63;0.90;;;19.80;24.50;;;;;;2248885;61;20364;-64
2023/01/16 07:32:28;0.00;0.00;0.62;0.00;0.00;0.62;1.50;0.80;;;19.80;24.50;;;;;;2248325;61;20407;-62
2023/01/16 07:34:55;0.00;0.00;0.62;0.00;0.00;0.62;1.30;0.70;;;19.90;24.50;;;;;;2248656;61;20438;-64
2023/01/16 07:37:21;0.00;0.00;0.62;0.00;0.00;0.62;2.17;1.10;;;19.90;24.60;;;;;;2247742;61;20454;-62
2023/01/16 07:39:48;0.00;0.00;0.62;0.00;0.00;0.62;1.90;0.93;;;19.90;24.60;;;;;;2248873;61;20386;-63
2023/01/16 07:42:14;0.00;0.00;0.62;0.00;0.00;0.62;1.70;0.80;;;19.90;24.50;;;;;;2248868;61;20583;-64
2023/01/16 07:44:41;0.00;0.00;0.62;0.00;0.00;0.62;1.97;0.97;;;19.90;24.50;;;;;;2248515;61;20368;-63
2023/01/16 07:47:12;0.00;0.00;0.62;0.00;0.00;0.62;2.20;0.90;;;19.90;24.50;;;;;;2247911;61;20406;-64
2023/01/16 07:49:38;0.00;0.00;0.62;0.00;0.00;0.62;2.73;0.87;;;19.90;24.50;;;;;;2249374;61;20417;-63
2023/01/16 07:52:05;0.00;0.00;0.62;0.00;0.00;0.62;1.87;1.10;;;19.90;24.50;;;;;;2249570;61;20834;-64
2023/01/16 07:54:31;0.00;0.00;0.62;0.00;0.00;0.62;1.60;0.90;;;19.90;24.50;;;;;;2249545;61;20422;-64
2023/01/16 07:56:58;0.00;0.00;0.62;0.00;0.00;0.62;1.90;0.90;;;19.90;24.50;;;;;;2250239;61;20367;-66
2023/01/16 07:59:24;0.00;0.00;0.62;0.00;0.00;0.62;1.70;1.20;;;19.90;24.50;;;;;;2250622;61;20377;-64
2023/01/16 08:01:51;0.00;0.00;0.62;0.00;0.00;0.62;1.63;1.00;;;19.90;25.00;;;;;;2251294;61;20731;-64
2023/01/16 08:04:18;0.00;0.00;0.62;0.00;0.00;0.62;1.80;1.00;;;19.90;24.50;;;;;;2250289;61;20478;-65
2023/01/16 08:06:45;0.00;0.00;0.62;0.00;0.00;0.62;2.30;0.97;;;19.90;24.50;;;;;;2250528;61;20687;-64
2023/01/16 08:09:14;0.00;0.00;0.62;0.00;0.00;0.62;1.70;1.00;;;19.90;24.50;;;;;;2250048;61;20876;-55
2023/01/16 08:11:46;0.00;0.00;0.62;0.00;0.00;0.62;1.80;1.03;;;19.90;24.40;;;;;;2249673;61;20848;-60
2023/01/16 08:14:13;0.00;0.00;0.62;0.00;0.00;0.62;1.97;0.90;;;19.90;24.30;;;;;;2249561;61;20927;-59
2023/01/16 08:16:40;0.00;0.00;0.62;0.00;0.00;0.62;3.50;1.20;;;19.80;24.00;;;;;;2250561;61;20387;-63
2023/01/16 08:19:07;0.00;0.00;0.62;0.00;0.00;0.62;2.20;1.30;;;19.80;24.00;;;;;;2251195;61;20371;-60
2023/01/16 08:21:34;0.00;0.00;0.62;0.00;0.00;0.62;2.40;1.00;;;19.70;24.10;;;;;;2250933;61;20414;-62
2023/01/16 08:24:01;0.00;0.00;0.62;0.00;0.00;0.62;2.33;1.03;;;19.70;24.20;;;;;;2251119;61;20523;-60
2023/01/16 08:26:28;0.00;0.00;0.62;0.00;0.00;0.62;2.57;1.37;;;19.70;24.30;;;;;;2251263;61;20826;-57
2023/01/16 08:28:55;0.00;0.00;0.62;0.00;0.00;0.62;2.33;1.30;;;19.60;24.20;;;;;;2250504;61;20880;-66
2023/01/16 08:31:21;0.00;0.00;0.62;0.00;0.00;0.62;2.10;1.10;;;19.60;24.20;;;;;;2250451;61;20872;-58
2023/01/16 08:33:49;0.00;0.00;0.62;0.00;0.00;0.62;3.30;1.57;;;19.50;24.10;;;;;;2250981;61;20773;-58
2023/01/16 08:36:16;0.00;0.00;0.62;0.00;0.00;0.62;2.07;1.20;;;19.50;24.10;;;;;;2251167;61;20906;-65
2023/01/16 08:38:44;0.00;0.00;0.62;0.00;0.00;0.62;2.80;1.30;;;19.50;24.00;;;;;;2249825;61;20372;-62
2023/01/16 08:52:12;0.00;0.00;0.62;0.00;0.00;0.62;2.00;1.10;;;19.30;24.00;;;;;;2250810;61;20566;-63
2023/01/16 08:54:40;0.00;0.00;0.62;0.00;0.00;0.62;3.93;1.07;;;19.30;24.10;;;;;;2250300;61;20782;-61
2023/01/16 08:57:07;0.00;0.00;0.62;0.00;0.00;0.62;2.57;1.10;;;19.20;24.00;;;;;;2250816;61;20368;-61
2023/01/16 08:59:33;0.00;0.00;0.62;0.00;0.00;0.62;2.10;1.00;;;19.20;24.00;;;;;;2250902;61;20483;-64
2023/01/16 09:02:01;0.00;0.00;0.62;0.00;0.00;0.62;2.47;1.37;;;19.20;24.10;;;;;;2250443;61;20414;-66
2023/01/16 09:04:27;0.00;0.00;0.62;0.00;0.00;0.62;1.77;1.00;;;19.20;24.20;;;;;;2251291;61;20422;-62
2023/01/16 09:06:54;0.00;0.00;0.62;0.00;0.00;0.62;1.90;1.20;;;19.20;24.20;;;;;;2250860;61;20391;-61
2023/01/16 09:09:20;0.00;0.00;0.62;0.00;0.00;0.62;1.70;1.30;;;19.10;24.20;;;;;;2250564;61;20949;-59
2023/01/16 09:14:39;0.00;0.00;0.62;0.00;0.00;0.62;2.93;1.23;;;19.20;24.40;;;;;;2250230;61;20378;-61
2023/01/16 09:17:06;0.00;0.00;0.62;0.00;0.00;0.62;2.20;1.20;;;19.10;24.40;;;;;;2250371;61;20589;-59
2023/01/16 09:19:33;0.00;0.00;0.62;0.00;0.00;0.62;2.73;1.30;;;19.10;24.40;;;;;;2250712;61;20364;-64
2023/01/16 09:22:01;0.00;0.00;0.62;0.00;0.00;0.62;2.40;0.97;;;19.10;24.40;;;;;;2250524;61;20356;-58
2023/01/16 09:24:27;0.00;0.00;0.62;0.00;0.00;0.62;1.87;0.90;;;19.10;24.90;;;;;;2250550;61;20772;-61
2023/01/16 09:26:55;0.00;0.00;0.62;0.00;0.00;0.62;2.87;1.53;;;19.10;24.40;;;;;;2250817;61;20383;-63
2023/01/16 09:29:22;0.00;0.00;0.62;0.00;0.00;0.62;4.40;1.33;;;19.10;24.40;;;;;;2250474;61;20403;-59
2023/01/16 09:31:48;0.00;0.00;0.62;0.00;0.00;0.62;1.80;0.97;;;19.10;24.40;;;;;;2250745;61;20895;-57
2023/01/16 09:34:15;0.00;0.00;0.62;0.00;0.00;0.62;3.10;1.40;;;19.10;24.30;;;;;;2250799;61;20785;-64
2023/01/16 09:36:41;0.00;0.00;0.62;0.00;0.00;0.62;3.30;1.27;;;19.10;24.30;;;;;;2248702;61;20439;-63
2023/01/16 09:39:08;0.00;0.00;0.62;0.00;0.00;0.62;4.03;1.10;;;19.10;24.40;;;;;;2250429;61;20364;-58
2023/01/16 09:44:30;0.00;0.00;0.62;0.00;0.00;0.62;1.70;1.00;;;19.10;24.40;;;;;;2250742;61;20434;-65
2023/01/16 09:46:58;0.00;0.00;0.62;0.00;0.00;0.62;1.60;0.90;;;19.20;24.50;;;;;;2250408;61;20802;-60
2023/01/16 09:49:30;0.00;0.00;0.62;0.00;0.00;0.62;1.53;0.90;;;19.20;24.60;;;;;;2250575;61;20391;-66
2023/01/16 10:00:31;0.00;0.00;0.62;0.00;0.00;0.62;2.33;0.93;;;19.40;24.80;;;;;;2250357;61;20391;-68
2023/01/16 10:02:57;0.00;0.00;0.62;0.00;0.00;0.62;2.23;0.90;;;19.40;24.80;;;;;;2250718;61;20375;-67
2023/01/16 10:05:32;0.00;0.00;0.62;0.00;0.00;0.62;2.00;0.90;;;19.40;24.80;;;;;;2250079;61;20485;-64
2023/01/16 10:08:02;0.00;0.00;0.62;0.00;0.00;0.62;2.33;1.00;;;19.50;24.90;;;;;;2254156;61;20374;-64
2023/01/16 10:10:40;0.00;0.00;0.62;0.00;0.00;0.62;1.73;0.77;;;19.50;24.90;;;;;;2254809;61;20362;-67
2023/01/16 10:13:26;0.00;0.00;0.62;0.00;0.00;0.62;1.50;0.70;;;19.60;24.90;;;;;;2254322;61;20383;-65
2023/01/16 10:16:03;0.00;0.00;0.62;0.00;0.00;0.62;1.80;0.90;;;19.60;25.00;;;;;;2254345;61;20367;-65
2023/01/16 10:18:43;0.00;0.00;0.62;0.00;0.00;0.62;1.80;1.00;;;19.60;25.00;;;;;;2254708;61;20923;-65
2023/01/16 10:21:37;0.00;0.00;0.62;0.00;0.00;0.62;1.50;0.73;;;19.70;25.00;;;;;;2254946;61;20424;-63
2023/01/16 10:24:16;0.00;0.00;0.62;0.00;0.00;0.62;1.80;1.00;;;19.70;25.00;;;;;;2253630;61;20379;-65
2023/01/16 10:26:55;0.00;0.00;0.62;0.00;0.00;0.62;2.73;0.87;;;19.80;25.10;;;;;;2254891;61;20383;-65
2023/01/16 10:29:30;0.00;0.00;0.62;0.00;0.00;0.62;3.87;0.97;;;19.80;25.10;;;;;;2254443;61;20867;-67